sensor_id;sensor_type;location;lat;lon;timestamp;P1;durP1;ratioP1;P2;durP2;ratioP2
28343;SDS011;15597;50.914;6.638;2023-05-13T00:01:44;16.10;;;9.32;;
28343;SDS011;15597;50.914;6.638;2023-05-13T00:04:10;15.77;;;9.02;;
28343;SDS011;15597;50.914;6.638;2023-05-13T00:06:35;15.20;;;10.00;;
28343;SDS011;15597;50.914;6.638;2023-05-13T00:09:01;13.75;;;8.80;;
28343;SDS011;15597;50.914;6.638;2023-05-13T00:11:27;15.85;;;9.18;;
28343;SDS011;15597;50.914;6.638;2023-05-13T00:13:52;17.40;;;11.15;;
28343;SDS011;15597;50.914;6.638;2023-05-13T00:16:18;15.88;;;9.15;;
28343;SDS011;15597;50.914;6.638;2023-05-13T00:18:43;13.65;;;7.55;;
28343;SDS011;15597;50.914;6.638;2023-05-13T00:21:09;8.82;;;5.45;;
28343;SDS011;15597;50.914;6.638;2023-05-13T00:23:35;9.90;;;6.85;;
28343;SDS011;15597;50.914;6.638;2023-05-13T00:26:00;16.13;;;8.35;;
28343;SDS011;15597;50.914;6.638;2023-05-13T00:28:26;9.63;;;5.72;;
28343;SDS011;15597;50.914;6.638;2023-05-13T00:30:51;11.63;;;7.18;;
28343;SDS011;15597;50.914;6.638;2023-05-13T00:33:17;12.35;;;8.32;;
28343;SDS011;15597;50.914;6.638;2023-05-13T00:35:43;11.00;;;7.60;;
28343;SDS011;15597;50.914;6.638;2023-05-13T00:38:08;7.95;;;5.05;;
28343;SDS011;15597;50.914;6.638;2023-05-13T00:40:37;9.60;;;5.95;;
28343;SDS011;15597;50.914;6.638;2023-05-13T00:43:07;8.98;;;5.72;;
28343;SDS011;15597;50.914;6.638;2023-05-13T00:45:35;15.05;;;8.50;;
28343;SDS011;15597;50.914;6.638;2023-05-13T00:48:01;9.60;;;4.38;;
28343;SDS011;15597;50.914;6.638;2023-05-13T00:50:30;9.50;;;4.53;;
28343;SDS011;15597;50.914;6.638;2023-05-13T00:52:56;14.05;;;7.25;;
28343;SDS011;15597;50.914;6.638;2023-05-13T00:55:22;9.32;;;4.80;;
28343;SDS011;15597;50.914;6.638;2023-05-13T00:57:48;13.57;;;8.68;;
28343;SDS011;15597;50.914;6.638;2023-05-13T01:00:14;11.73;;;7.20;;
28343;SDS011;15597;50.914;6.638;2023-05-13T01:05:18;8.75;;;4.90;;
28343;SDS011;15597;50.914;6.638;2023-05-13T01:07:56;14.43;;;9.07;;
28343;SDS011;15597;50.914;6.638;2023-05-13T01:10:43;15.85;;;8.82;;
28343;SDS011;15597;50.914;6.638;2023-05-13T01:13:22;13.15;;;6.07;;
28343;SDS011;15597;50.914;6.638;2023-05-13T01:15:53;16.70;;;9.93;;
28343;SDS011;15597;50.914;6.638;2023-05-13T01:18:29;20.15;;;9.48;;
28343;SDS011;15597;50.914;6.638;2023-05-13T01:20:57;16.45;;;9.63;;
28343;SDS011;15597;50.914;6.638;2023-05-13T01:23:26;13.60;;;8.38;;
28343;SDS011;15597;50.914;6.638;2023-05-13T01:25:53;13.93;;;9.07;;
28343;SDS011;15597;50.914;6.638;2023-05-13T01:28:20;18.02;;;10.80;;
28343;SDS011;15597;50.914;6.638;2023-05-13T01:30:50;15.95;;;10.60;;
28343;SDS011;15597;50.914;6.638;2023-05-13T01:33:17;14.23;;;9.48;;
28343;SDS011;15597;50.914;6.638;2023-05-13T01:35:45;12.60;;;8.40;;
28343;SDS011;15597;50.914;6.638;2023-05-13T01:38:14;20.13;;;11.70;;
28343;SDS011;15597;50.914;6.638;2023-05-13T01:40:45;8.63;;;5.50;;
28343;SDS011;15597;50.914;6.638;2023-05-13T01:43:11;8.95;;;5.95;;
28343;SDS011;15597;50.914;6.638;2023-05-13T01:45:36;17.67;;;9.55;;
28343;SDS011;15597;50.914;6.638;2023-05-13T01:48:02;12.07;;;6.75;;
28343;SDS011;15597;50.914;6.638;2023-05-13T01:50:37;19.05;;;10.48;;
28343;SDS011;15597;50.914;6.638;2023-05-13T01:53:04;21.20;;;11.25;;
28343;SDS011;15597;50.914;6.638;2023-05-13T01:55:29;8.95;;;6.15;;
28343;SDS011;15597;50.914;6.638;2023-05-13T01:57:56;13.23;;;8.35;;
28343;SDS011;15597;50.914;6.638;2023-05-13T02:00:21;18.50;;;10.73;;
28343;SDS011;15597;50.914;6.638;2023-05-13T02:02:48;11.32;;;8.02;;
28343;SDS011;15597;50.914;6.638;2023-05-13T02:05:14;17.27;;;9.60;;
28343;SDS011;15597;50.914;6.638;2023-05-13T02:07:39;13.93;;;9.20;;
28343;SDS011;15597;50.914;6.638;2023-05-13T02:10:05;20.52;;;11.85;;
28343;SDS011;15597;50.914;6.638;2023-05-13T02:12:31;18.25;;;12.38;;
28343;SDS011;15597;50.914;6.638;2023-05-13T02:14:57;17.77;;;11.75;;
28343;SDS011;15597;50.914;6.638;2023-05-13T02:17:22;18.25;;;11.95;;
28343;SDS011;15597;50.914;6.638;2023-05-13T02:19:48;18.60;;;11.45;;
28343;SDS011;15597;50.914;6.638;2023-05-13T02:22:14;18.05;;;11.65;;
28343;SDS011;15597;50.914;6.638;2023-05-13T02:24:40;21.67;;;12.73;;
28343;SDS011;15597;50.914;6.638;2023-05-13T02:27:07;20.13;;;11.75;;
28343;SDS011;15597;50.914;6.638;2023-05-13T02:29:33;19.88;;;11.93;;
28343;SDS011;15597;50.914;6.638;2023-05-13T02:31:59;21.95;;;12.65;;
28343;SDS011;15597;50.914;6.638;2023-05-13T02:34:25;9.30;;;5.68;;
28343;SDS011;15597;50.914;6.638;2023-05-13T02:36:51;20.63;;;11.95;;
28343;SDS011;15597;50.914;6.638;2023-05-13T02:39:17;21.08;;;11.52;;
28343;SDS011;15597;50.914;6.638;2023-05-13T02:41:43;20.00;;;12.02;;
28343;SDS011;15597;50.914;6.638;2023-05-13T02:44:09;19.13;;;12.70;;
28343;SDS011;15597;50.914;6.638;2023-05-13T02:46:36;19.95;;;13.10;;
28343;SDS011;15597;50.914;6.638;2023-05-13T02:49:01;18.80;;;12.73;;
28343;SDS011;15597;50.914;6.638;2023-05-13T02:51:29;15.65;;;10.30;;
28343;SDS011;15597;50.914;6.638;2023-05-13T02:53:55;23.23;;;13.70;;
28343;SDS011;15597;50.914;6.638;2023-05-13T02:56:21;21.52;;;13.02;;
28343;SDS011;15597;50.914;6.638;2023-05-13T02:58:47;18.92;;;11.82;;
28343;SDS011;15597;50.914;6.638;2023-05-13T03:01:13;22.77;;;13.18;;
28343;SDS011;15597;50.914;6.638;2023-05-13T03:03:38;21.33;;;12.52;;
28343;SDS011;15597;50.914;6.638;2023-05-13T03:06:04;20.98;;;13.25;;
28343;SDS011;15597;50.914;6.638;2023-05-13T03:08:30;21.05;;;12.00;;
28343;SDS011;15597;50.914;6.638;2023-05-13T03:10:56;20.35;;;12.30;;
28343;SDS011;15597;50.914;6.638;2023-05-13T03:13:22;19.83;;;12.70;;
28343;SDS011;15597;50.914;6.638;2023-05-13T03:15:48;23.08;;;12.25;;
28343;SDS011;15597;50.914;6.638;2023-05-13T03:18:14;19.83;;;12.15;;
28343;SDS011;15597;50.914;6.638;2023-05-13T03:20:39;17.55;;;11.75;;
28343;SDS011;15597;50.914;6.638;2023-05-13T03:23:05;19.40;;;11.23;;
28343;SDS011;15597;50.914;6.638;2023-05-13T03:25:31;20.38;;;12.35;;
28343;SDS011;15597;50.914;6.638;2023-05-13T03:27:57;22.63;;;13.13;;
28343;SDS011;15597;50.914;6.638;2023-05-13T03:30:25;20.35;;;12.10;;
28343;SDS011;15597;50.914;6.638;2023-05-13T03:33:00;20.10;;;12.35;;
28343;SDS011;15597;50.914;6.638;2023-05-13T03:35:26;21.25;;;12.95;;
28343;SDS011;15597;50.914;6.638;2023-05-13T03:37:52;18.10;;;11.98;;
28343;SDS011;15597;50.914;6.638;2023-05-13T03:40:17;19.88;;;12.10;;
28343;SDS011;15597;50.914;6.638;2023-05-13T03:42:43;18.13;;;12.48;;
28343;SDS011;15597;50.914;6.638;2023-05-13T03:45:09;18.15;;;11.77;;
28343;SDS011;15597;50.914;6.638;2023-05-13T03:47:37;18.80;;;11.32;;
28343;SDS011;15597;50.914;6.638;2023-05-13T03:50:06;20.42;;;11.85;;
28343;SDS011;15597;50.914;6.638;2023-05-13T03:52:39;16.98;;;10.32;;
28343;SDS011;15597;50.914;6.638;2023-05-13T03:55:05;11.95;;;7.78;;
28343;SDS011;15597;50.914;6.638;2023-05-13T03:57:32;9.30;;;5.57;;
28343;SDS011;15597;50.914;6.638;2023-05-13T03:59:58;15.10;;;9.52;;
28343;SDS011;15597;50.914;6.638;2023-05-13T04:02:23;18.48;;;10.80;;
28343;SDS011;15597;50.914;6.638;2023-05-13T04:04:49;18.52;;;10.60;;
28343;SDS011;15597;50.914;6.638;2023-05-13T04:07:14;16.60;;;9.73;;
28343;SDS011;15597;50.914;6.638;2023-05-13T04:09:40;17.50;;;10.75;;
28343;SDS011;15597;50.914;6.638;2023-05-13T04:12:06;18.67;;;12.55;;
28343;SDS011;15597;50.914;6.638;2023-05-13T04:14:32;19.33;;;11.80;;
28343;SDS011;15597;50.914;6.638;2023-05-13T04:16:57;20.85;;;12.27;;
28343;SDS011;15597;50.914;6.638;2023-05-13T04:19:23;19.33;;;11.75;;
28343;SDS011;15597;50.914;6.638;2023-05-13T04:21:49;20.02;;;12.73;;
28343;SDS011;15597;50.914;6.638;2023-05-13T04:24:14;18.65;;;12.27;;
28343;SDS011;15597;50.914;6.638;2023-05-13T04:26:40;19.35;;;12.98;;
28343;SDS011;15597;50.914;6.638;2023-05-13T04:29:06;19.00;;;11.90;;
28343;SDS011;15597;50.914;6.638;2023-05-13T04:31:31;20.15;;;12.60;;
28343;SDS011;15597;50.914;6.638;2023-05-13T04:33:57;22.35;;;13.52;;
28343;SDS011;15597;50.914;6.638;2023-05-13T04:36:23;19.13;;;12.40;;
28343;SDS011;15597;50.914;6.638;2023-05-13T04:38:50;21.90;;;13.55;;
28343;SDS011;15597;50.914;6.638;2023-05-13T04:41:16;13.20;;;7.35;;
28343;SDS011;15597;50.914;6.638;2023-05-13T04:43:43;14.73;;;9.13;;
28343;SDS011;15597;50.914;6.638;2023-05-13T04:46:09;11.93;;;6.82;;
28343;SDS011;15597;50.914;6.638;2023-05-13T04:48:35;16.25;;;10.88;;
28343;SDS011;15597;50.914;6.638;2023-05-13T04:51:01;19.48;;;13.13;;
28343;SDS011;15597;50.914;6.638;2023-05-13T04:53:29;12.63;;;8.32;;
28343;SDS011;15597;50.914;6.638;2023-05-13T04:55:58;13.75;;;7.32;;
28343;SDS011;15597;50.914;6.638;2023-05-13T04:58:26;10.45;;;6.72;;
28343;SDS011;15597;50.914;6.638;2023-05-13T05:00:52;16.05;;;6.75;;
28343;SDS011;15597;50.914;6.638;2023-05-13T05:03:19;9.32;;;5.35;;
28343;SDS011;15597;50.914;6.638;2023-05-13T05:05:45;13.88;;;9.05;;
28343;SDS011;15597;50.914;6.638;2023-05-13T05:08:12;21.05;;;13.27;;
28343;SDS011;15597;50.914;6.638;2023-05-13T05:10:38;17.92;;;10.63;;
28343;SDS011;15597;50.914;6.638;2023-05-13T05:13:05;11.32;;;5.78;;
28343;SDS011;15597;50.914;6.638;2023-05-13T05:15:31;11.25;;;6.28;;
28343;SDS011;15597;50.914;6.638;2023-05-13T05:17:59;12.35;;;6.82;;
28343;SDS011;15597;50.914;6.638;2023-05-13T05:20:25;11.80;;;7.10;;
28343;SDS011;15597;50.914;6.638;2023-05-13T05:22:54;19.48;;;11.07;;
28343;SDS011;15597;50.914;6.638;2023-05-13T05:25:22;9.65;;;5.38;;
28343;SDS011;15597;50.914;6.638;2023-05-13T05:27:49;18.95;;;11.38;;
28343;SDS011;15597;50.914;6.638;2023-05-13T05:30:15;22.20;;;11.63;;
28343;SDS011;15597;50.914;6.638;2023-05-13T05:32:42;9.07;;;6.07;;
28343;SDS011;15597;50.914;6.638;2023-05-13T05:35:08;16.33;;;8.50;;
28343;SDS011;15597;50.914;6.638;2023-05-13T05:37:33;15.00;;;9.70;;
28343;SDS011;15597;50.914;6.638;2023-05-13T05:39:59;10.35;;;6.68;;
28343;SDS011;15597;50.914;6.638;2023-05-13T05:42:26;9.15;;;5.90;;
28343;SDS011;15597;50.914;6.638;2023-05-13T05:44:51;16.80;;;11.77;;
28343;SDS011;15597;50.914;6.638;2023-05-13T05:47:17;9.75;;;5.60;;
28343;SDS011;15597;50.914;6.638;2023-05-13T05:49:43;10.07;;;6.68;;
28343;SDS011;15597;50.914;6.638;2023-05-13T05:52:09;11.82;;;6.32;;
28343;SDS011;15597;50.914;6.638;2023-05-13T05:54:35;9.63;;;5.55;;
28343;SDS011;15597;50.914;6.638;2023-05-13T05:57:01;10.25;;;5.82;;
28343;SDS011;15597;50.914;6.638;2023-05-13T05:59:26;7.85;;;4.90;;
28343;SDS011;15597;50.914;6.638;2023-05-13T06:01:52;14.25;;;9.52;;
28343;SDS011;15597;50.914;6.638;2023-05-13T06:04:17;9.88;;;6.22;;
28343;SDS011;15597;50.914;6.638;2023-05-13T06:06:44;9.25;;;5.22;;
28343;SDS011;15597;50.914;6.638;2023-05-13T06:09:09;8.23;;;5.05;;
28343;SDS011;15597;50.914;6.638;2023-05-13T06:11:38;14.45;;;7.38;;
28343;SDS011;15597;50.914;6.638;2023-05-13T06:14:03;9.57;;;5.82;;
28343;SDS011;15597;50.914;6.638;2023-05-13T06:16:29;7.15;;;5.03;;
28343;SDS011;15597;50.914;6.638;2023-05-13T06:18:55;11.48;;;6.22;;
28343;SDS011;15597;50.914;6.638;2023-05-13T06:21:21;10.32;;;6.43;;
28343;SDS011;15597;50.914;6.638;2023-05-13T06:23:47;10.60;;;6.13;;
28343;SDS011;15597;50.914;6.638;2023-05-13T06:26:13;9.63;;;6.20;;
28343;SDS011;15597;50.914;6.638;2023-05-13T06:28:39;9.25;;;5.55;;
28343;SDS011;15597;50.914;6.638;2023-05-13T06:31:04;9.98;;;6.72;;
28343;SDS011;15597;50.914;6.638;2023-05-13T06:33:33;11.50;;;6.53;;
28343;SDS011;15597;50.914;6.638;2023-05-13T06:36:01;12.15;;;8.13;;
28343;SDS011;15597;50.914;6.638;2023-05-13T06:38:27;12.75;;;7.47;;
28343;SDS011;15597;50.914;6.638;2023-05-13T06:40:55;12.07;;;7.85;;
28343;SDS011;15597;50.914;6.638;2023-05-13T06:43:27;11.18;;;7.07;;
28343;SDS011;15597;50.914;6.638;2023-05-13T06:45:56;16.85;;;10.77;;
28343;SDS011;15597;50.914;6.638;2023-05-13T06:48:22;13.27;;;6.95;;
28343;SDS011;15597;50.914;6.638;2023-05-13T06:50:47;11.23;;;7.35;;
28343;SDS011;15597;50.914;6.638;2023-05-13T06:53:14;13.55;;;8.85;;
28343;SDS011;15597;50.914;6.638;2023-05-13T06:55:39;16.55;;;10.88;;
28343;SDS011;15597;50.914;6.638;2023-05-13T06:58:08;16.17;;;10.80;;
28343;SDS011;15597;50.914;6.638;2023-05-13T07:00:37;10.45;;;7.32;;
28343;SDS011;15597;50.914;6.638;2023-05-13T07:03:05;18.63;;;10.60;;
28343;SDS011;15597;50.914;6.638;2023-05-13T07:05:31;13.75;;;8.27;;
28343;SDS011;15597;50.914;6.638;2023-05-13T07:07:57;14.70;;;10.32;;
28343;SDS011;15597;50.914;6.638;2023-05-13T07:10:23;13.35;;;8.50;;
28343;SDS011;15597;50.914;6.638;2023-05-13T07:12:48;11.93;;;8.25;;
28343;SDS011;15597;50.914;6.638;2023-05-13T07:15:14;12.93;;;8.95;;
28343;SDS011;15597;50.914;6.638;2023-05-13T07:17:43;16.58;;;9.25;;
28343;SDS011;15597;50.914;6.638;2023-05-13T07:20:09;18.25;;;10.80;;
28343;SDS011;15597;50.914;6.638;2023-05-13T07:22:35;13.90;;;8.40;;
28343;SDS011;15597;50.914;6.638;2023-05-13T07:25:01;15.63;;;9.27;;
28343;SDS011;15597;50.914;6.638;2023-05-13T07:27:29;10.93;;;8.23;;
28343;SDS011;15597;50.914;6.638;2023-05-13T07:29:55;16.92;;;11.30;;
28343;SDS011;15597;50.914;6.638;2023-05-13T07:32:20;14.52;;;9.07;;
28343;SDS011;15597;50.914;6.638;2023-05-13T07:34:46;15.82;;;10.20;;
28343;SDS011;15597;50.914;6.638;2023-05-13T07:37:11;15.05;;;8.70;;
28343;SDS011;15597;50.914;6.638;2023-05-13T07:39:37;13.73;;;8.73;;
28343;SDS011;15597;50.914;6.638;2023-05-13T07:42:02;12.98;;;7.55;;
28343;SDS011;15597;50.914;6.638;2023-05-13T07:44:28;19.05;;;9.93;;
28343;SDS011;15597;50.914;6.638;2023-05-13T07:46:54;19.00;;;11.15;;
28343;SDS011;15597;50.914;6.638;2023-05-13T07:49:20;13.55;;;7.40;;
28343;SDS011;15597;50.914;6.638;2023-05-13T07:51:45;19.90;;;10.95;;
28343;SDS011;15597;50.914;6.638;2023-05-13T07:54:11;16.48;;;10.52;;
28343;SDS011;15597;50.914;6.638;2023-05-13T07:56:40;16.55;;;10.32;;
28343;SDS011;15597;50.914;6.638;2023-05-13T07:59:11;16.25;;;9.07;;
28343;SDS011;15597;50.914;6.638;2023-05-13T08:01:36;18.95;;;10.45;;
28343;SDS011;15597;50.914;6.638;2023-05-13T08:04:02;15.48;;;8.68;;
28343;SDS011;15597;50.914;6.638;2023-05-13T08:06:27;15.45;;;8.45;;
28343;SDS011;15597;50.914;6.638;2023-05-13T08:08:53;14.48;;;8.77;;
28343;SDS011;15597;50.914;6.638;2023-05-13T08:11:21;20.35;;;9.85;;
28343;SDS011;15597;50.914;6.638;2023-05-13T08:13:50;14.65;;;9.20;;
28343;SDS011;15597;50.914;6.638;2023-05-13T08:16:16;14.93;;;9.75;;
28343;SDS011;15597;50.914;6.638;2023-05-13T08:18:41;18.63;;;11.43;;
28343;SDS011;15597;50.914;6.638;2023-05-13T08:21:07;11.95;;;8.52;;
28343;SDS011;15597;50.914;6.638;2023-05-13T08:23:33;12.73;;;8.80;;
28343;SDS011;15597;50.914;6.638;2023-05-13T08:25:59;15.95;;;10.27;;
28343;SDS011;15597;50.914;6.638;2023-05-13T08:28:25;14.48;;;8.65;;
28343;SDS011;15597;50.914;6.638;2023-05-13T08:30:51;18.48;;;9.15;;
28343;SDS011;15597;50.914;6.638;2023-05-13T08:33:17;15.80;;;9.43;;
28343;SDS011;15597;50.914;6.638;2023-05-13T08:35:45;11.43;;;7.80;;
28343;SDS011;15597;50.914;6.638;2023-05-13T08:38:20;12.88;;;8.38;;
28343;SDS011;15597;50.914;6.638;2023-05-13T08:40:46;14.90;;;9.95;;
28343;SDS011;15597;50.914;6.638;2023-05-13T08:43:12;14.65;;;8.63;;
28343;SDS011;15597;50.914;6.638;2023-05-13T08:45:44;13.43;;;8.98;;
28343;SDS011;15597;50.914;6.638;2023-05-13T08:48:11;13.57;;;8.65;;
28343;SDS011;15597;50.914;6.638;2023-05-13T08:50:39;16.00;;;9.10;;
28343;SDS011;15597;50.914;6.638;2023-05-13T08:53:05;14.13;;;9.85;;
28343;SDS011;15597;50.914;6.638;2023-05-13T08:55:31;16.50;;;8.55;;
28343;SDS011;15597;50.914;6.638;2023-05-13T08:57:57;13.68;;;8.35;;
28343;SDS011;15597;50.914;6.638;2023-05-13T09:00:23;13.40;;;8.85;;
28343;SDS011;15597;50.914;6.638;2023-05-13T09:02:49;12.45;;;8.90;;
28343;SDS011;15597;50.914;6.638;2023-05-13T09:05:17;13.68;;;8.65;;
28343;SDS011;15597;50.914;6.638;2023-05-13T09:07:44;15.07;;;10.25;;
28343;SDS011;15597;50.914;6.638;2023-05-13T09:10:13;12.68;;;7.93;;
28343;SDS011;15597;50.914;6.638;2023-05-13T09:15:16;14.40;;;9.15;;
28343;SDS011;15597;50.914;6.638;2023-05-13T09:17:47;15.02;;;7.53;;
28343;SDS011;15597;50.914;6.638;2023-05-13T09:20:15;12.82;;;9.32;;
28343;SDS011;15597;50.914;6.638;2023-05-13T09:25:18;17.15;;;8.88;;
28343;SDS011;15597;50.914;6.638;2023-05-13T09:27:45;13.63;;;7.95;;
28343;SDS011;15597;50.914;6.638;2023-05-13T09:32:39;14.27;;;7.80;;
28343;SDS011;15597;50.914;6.638;2023-05-13T09:37:45;11.20;;;7.20;;
28343;SDS011;15597;50.914;6.638;2023-05-13T09:40:15;13.85;;;8.52;;
28343;SDS011;15597;50.914;6.638;2023-05-13T09:42:44;14.93;;;8.75;;
28343;SDS011;15597;50.914;6.638;2023-05-13T09:45:11;11.23;;;8.20;;
28343;SDS011;15597;50.914;6.638;2023-05-13T09:50:05;12.27;;;8.18;;
28343;SDS011;15597;50.914;6.638;2023-05-13T09:52:35;13.85;;;9.23;;
28343;SDS011;15597;50.914;6.638;2023-05-13T09:55:01;12.27;;;8.35;;
28343;SDS011;15597;50.914;6.638;2023-05-13T09:57:31;12.68;;;7.60;;
28343;SDS011;15597;50.914;6.638;2023-05-13T09:59:57;12.70;;;7.05;;
28343;SDS011;15597;50.914;6.638;2023-05-13T10:02:24;11.45;;;8.43;;
28343;SDS011;15597;50.914;6.638;2023-05-13T10:04:51;13.10;;;8.10;;
28343;SDS011;15597;50.914;6.638;2023-05-13T10:07:24;15.52;;;8.57;;
28343;SDS011;15597;50.914;6.638;2023-05-13T10:09:57;10.60;;;7.15;;
28343;SDS011;15597;50.914;6.638;2023-05-13T10:12:27;12.73;;;7.50;;
28343;SDS011;15597;50.914;6.638;2023-05-13T10:14:54;8.75;;;6.38;;
28343;SDS011;15597;50.914;6.638;2023-05-13T10:17:21;11.73;;;7.78;;
28343;SDS011;15597;50.914;6.638;2023-05-13T10:19:49;12.68;;;7.40;;
28343;SDS011;15597;50.914;6.638;2023-05-13T10:22:30;12.90;;;7.38;;
28343;SDS011;15597;50.914;6.638;2023-05-13T10:24:56;10.77;;;7.20;;
28343;SDS011;15597;50.914;6.638;2023-05-13T10:27:27;14.07;;;8.38;;
28343;SDS011;15597;50.914;6.638;2023-05-13T10:29:55;11.60;;;7.30;;
28343;SDS011;15597;50.914;6.638;2023-05-13T10:32:25;9.30;;;6.50;;
28343;SDS011;15597;50.914;6.638;2023-05-13T10:34:54;11.32;;;6.55;;
28343;SDS011;15597;50.914;6.638;2023-05-13T10:43:29;13.18;;;7.00;;
28343;SDS011;15597;50.914;6.638;2023-05-13T10:51:14;10.32;;;5.70;;
28343;SDS011;15597;50.914;6.638;2023-05-13T10:53:42;9.25;;;6.07;;
28343;SDS011;15597;50.914;6.638;2023-05-13T10:56:08;12.15;;;6.43;;
28343;SDS011;15597;50.914;6.638;2023-05-13T10:58:34;8.52;;;5.75;;
28343;SDS011;15597;50.914;6.638;2023-05-13T11:04:03;11.00;;;5.72;;
28343;SDS011;15597;50.914;6.638;2023-05-13T11:06:36;12.05;;;5.72;;
28343;SDS011;15597;50.914;6.638;2023-05-13T11:09:07;10.05;;;5.55;;
28343;SDS011;15597;50.914;6.638;2023-05-13T11:11:36;10.23;;;5.07;;
28343;SDS011;15597;50.914;6.638;2023-05-13T11:14:06;9.50;;;5.72;;
28343;SDS011;15597;50.914;6.638;2023-05-13T11:16:37;7.85;;;5.85;;
28343;SDS011;15597;50.914;6.638;2023-05-13T11:19:05;9.32;;;5.13;;
28343;SDS011;15597;50.914;6.638;2023-05-13T11:21:40;7.07;;;4.88;;
28343;SDS011;15597;50.914;6.638;2023-05-13T11:24:06;7.93;;;5.07;;
28343;SDS011;15597;50.914;6.638;2023-05-13T11:26:53;8.70;;;5.35;;
28343;SDS011;15597;50.914;6.638;2023-05-13T11:31:59;10.02;;;4.78;;
28343;SDS011;15597;50.914;6.638;2023-05-13T11:34:26;8.15;;;4.82;;
28343;SDS011;15597;50.914;6.638;2023-05-13T11:36:56;7.10;;;4.93;;
28343;SDS011;15597;50.914;6.638;2023-05-13T11:39:31;7.90;;;4.53;;
28343;SDS011;15597;50.914;6.638;2023-05-13T11:41:57;7.68;;;5.13;;
28343;SDS011;15597;50.914;6.638;2023-05-13T11:44:26;10.15;;;4.82;;
28343;SDS011;15597;50.914;6.638;2023-05-13T11:46:53;8.02;;;4.80;;
28343;SDS011;15597;50.914;6.638;2023-05-13T11:52:09;8.27;;;4.70;;
28343;SDS011;15597;50.914;6.638;2023-05-13T11:54:47;8.63;;;4.80;;
28343;SDS011;15597;50.914;6.638;2023-05-13T11:59:51;8.63;;;5.07;;
28343;SDS011;15597;50.914;6.638;2023-05-13T12:02:27;8.88;;;4.30;;
28343;SDS011;15597;50.914;6.638;2023-05-13T12:04:55;10.05;;;4.03;;
28343;SDS011;15597;50.914;6.638;2023-05-13T12:07:24;7.72;;;3.95;;
28343;SDS011;15597;50.914;6.638;2023-05-13T12:09:51;6.35;;;3.92;;
28343;SDS011;15597;50.914;6.638;2023-05-13T12:12:20;5.43;;;3.20;;
28343;SDS011;15597;50.914;6.638;2023-05-13T12:14:47;4.40;;;2.67;;
28343;SDS011;15597;50.914;6.638;2023-05-13T12:17:17;8.35;;;3.58;;
28343;SDS011;15597;50.914;6.638;2023-05-13T12:20:03;6.75;;;3.05;;
28343;SDS011;15597;50.914;6.638;2023-05-13T12:22:30;7.25;;;2.85;;
28343;SDS011;15597;50.914;6.638;2023-05-13T12:24:55;4.85;;;2.70;;
28343;SDS011;15597;50.914;6.638;2023-05-13T12:27:25;7.18;;;3.35;;
28343;SDS011;15597;50.914;6.638;2023-05-13T12:29:54;6.78;;;3.20;;
28343;SDS011;15597;50.914;6.638;2023-05-13T12:32:20;5.97;;;3.35;;
28343;SDS011;15597;50.914;6.638;2023-05-13T12:37:14;7.88;;;3.20;;
28343;SDS011;15597;50.914;6.638;2023-05-13T12:39:40;6.80;;;3.40;;
28343;SDS011;15597;50.914;6.638;2023-05-13T12:42:16;5.90;;;3.97;;
28343;SDS011;15597;50.914;6.638;2023-05-13T12:44:45;7.35;;;3.50;;
28343;SDS011;15597;50.914;6.638;2023-05-13T12:47:14;5.35;;;2.53;;
28343;SDS011;15597;50.914;6.638;2023-05-13T12:49:50;4.75;;;2.80;;
28343;SDS011;15597;50.914;6.638;2023-05-13T12:52:16;6.22;;;2.30;;
28343;SDS011;15597;50.914;6.638;2023-05-13T12:54:42;4.90;;;2.50;;
28343;SDS011;15597;50.914;6.638;2023-05-13T12:57:08;7.18;;;3.13;;
28343;SDS011;15597;50.914;6.638;2023-05-13T12:59:34;6.30;;;2.95;;
28343;SDS011;15597;50.914;6.638;2023-05-13T13:01:59;7.65;;;3.47;;
28343;SDS011;15597;50.914;6.638;2023-05-13T13:04:25;8.10;;;2.95;;
28343;SDS011;15597;50.914;6.638;2023-05-13T13:06:50;7.18;;;3.58;;
28343;SDS011;15597;50.914;6.638;2023-05-13T13:09:16;7.10;;;2.85;;
28343;SDS011;15597;50.914;6.638;2023-05-13T13:11:41;6.93;;;2.65;;
28343;SDS011;15597;50.914;6.638;2023-05-13T13:14:07;6.18;;;2.80;;
28343;SDS011;15597;50.914;6.638;2023-05-13T13:16:35;5.00;;;2.78;;
28343;SDS011;15597;50.914;6.638;2023-05-13T13:19:01;5.32;;;3.05;;
28343;SDS011;15597;50.914;6.638;2023-05-13T13:21:26;5.70;;;3.22;;
28343;SDS011;15597;50.914;6.638;2023-05-13T13:23:53;6.25;;;2.95;;
28343;SDS011;15597;50.914;6.638;2023-05-13T13:26:18;8.10;;;2.53;;
28343;SDS011;15597;50.914;6.638;2023-05-13T13:28:46;4.63;;;2.53;;
28343;SDS011;15597;50.914;6.638;2023-05-13T13:31:12;3.75;;;2.15;;
28343;SDS011;15597;50.914;6.638;2023-05-13T13:33:37;4.22;;;2.30;;
28343;SDS011;15597;50.914;6.638;2023-05-13T13:36:03;4.97;;;2.78;;
28343;SDS011;15597;50.914;6.638;2023-05-13T13:38:29;7.38;;;3.40;;
28343;SDS011;15597;50.914;6.638;2023-05-13T13:40:54;4.80;;;2.35;;
28343;SDS011;15597;50.914;6.638;2023-05-13T13:43:20;5.20;;;3.05;;
28343;SDS011;15597;50.914;6.638;2023-05-13T13:45:46;6.90;;;3.28;;
28343;SDS011;15597;50.914;6.638;2023-05-13T13:48:11;8.48;;;3.05;;
28343;SDS011;15597;50.914;6.638;2023-05-13T13:50:37;6.70;;;3.40;;
28343;SDS011;15597;50.914;6.638;2023-05-13T13:53:03;7.70;;;2.92;;
28343;SDS011;15597;50.914;6.638;2023-05-13T13:55:28;4.63;;;2.13;;
28343;SDS011;15597;50.914;6.638;2023-05-13T13:57:54;4.22;;;2.47;;
28343;SDS011;15597;50.914;6.638;2023-05-13T14:00:22;5.70;;;2.63;;
28343;SDS011;15597;50.914;6.638;2023-05-13T14:02:48;5.03;;;2.05;;
28343;SDS011;15597;50.914;6.638;2023-05-13T14:05:13;4.15;;;2.13;;
28343;SDS011;15597;50.914;6.638;2023-05-13T14:07:40;5.93;;;2.80;;
28343;SDS011;15597;50.914;6.638;2023-05-13T14:10:06;4.68;;;2.53;;
28343;SDS011;15597;50.914;6.638;2023-05-13T14:12:32;3.88;;;2.38;;
28343;SDS011;15597;50.914;6.638;2023-05-13T14:17:25;4.45;;;2.20;;
28343;SDS011;15597;50.914;6.638;2023-05-13T14:19:51;6.90;;;2.30;;
28343;SDS011;15597;50.914;6.638;2023-05-13T14:22:19;6.05;;;2.22;;
28343;SDS011;15597;50.914;6.638;2023-05-13T14:24:46;7.18;;;2.97;;
28343;SDS011;15597;50.914;6.638;2023-05-13T14:27:12;9.82;;;3.28;;
28343;SDS011;15597;50.914;6.638;2023-05-13T14:29:38;5.20;;;2.10;;
28343;SDS011;15597;50.914;6.638;2023-05-13T14:32:07;4.15;;;2.15;;
28343;SDS011;15597;50.914;6.638;2023-05-13T14:34:33;4.13;;;2.47;;
28343;SDS011;15597;50.914;6.638;2023-05-13T14:36:58;7.05;;;2.53;;
28343;SDS011;15597;50.914;6.638;2023-05-13T14:39:24;5.10;;;2.75;;
28343;SDS011;15597;50.914;6.638;2023-05-13T14:41:55;6.85;;;2.53;;
28343;SDS011;15597;50.914;6.638;2023-05-13T14:44:24;6.55;;;2.30;;
28343;SDS011;15597;50.914;6.638;2023-05-13T14:46:49;6.75;;;2.65;;
28343;SDS011;15597;50.914;6.638;2023-05-13T14:49:15;7.78;;;2.50;;
28343;SDS011;15597;50.914;6.638;2023-05-13T14:51:41;6.10;;;2.50;;
28343;SDS011;15597;50.914;6.638;2023-05-13T14:54:06;6.47;;;2.70;;
28343;SDS011;15597;50.914;6.638;2023-05-13T14:56:34;5.63;;;2.30;;
28343;SDS011;15597;50.914;6.638;2023-05-13T14:59:00;5.05;;;2.40;;
28343;SDS011;15597;50.914;6.638;2023-05-13T15:01:27;5.47;;;2.20;;
28343;SDS011;15597;50.914;6.638;2023-05-13T15:03:52;3.92;;;2.40;;
28343;SDS011;15597;50.914;6.638;2023-05-13T15:06:21;6.32;;;2.55;;
28343;SDS011;15597;50.914;6.638;2023-05-13T15:08:46;6.85;;;2.40;;
28343;SDS011;15597;50.914;6.638;2023-05-13T15:11:12;6.15;;;2.17;;
28343;SDS011;15597;50.914;6.638;2023-05-13T15:13:38;4.30;;;2.50;;
28343;SDS011;15597;50.914;6.638;2023-05-13T15:16:04;6.30;;;3.10;;
28343;SDS011;15597;50.914;6.638;2023-05-13T15:18:30;4.45;;;2.50;;